Time;durP1;ratioP1;P1;durP2;ratioP2;P2;SDS_P1;SDS_P2;PMS_P1;PMS_P2;Temp;Humidity;BMP_temperature;BMP_pressure;BME280_temperature;BME280_humidity;BME280_pressure;Samples;Min_cycle;Max_cycle;Signal;HPM_P1;HPM_P2
2022/07/28 00:01:22;;;;;;;0.50;0.40;;;;;;;17.74;56.87;100360.47;5052479;28;21062;-50
2022/07/28 00:03:48;;;;;;;0.67;0.37;;;;;;;17.84;57.09;100354.56;5052832;28;20477;-50
2022/07/28 00:06:15;;;;;;;1.27;1.23;;;;;;;17.62;57.65;100353.06;5052679;28;20490;-50
2022/07/28 00:08:42;;;;;;;0.60;0.30;;;;;;;17.53;58.00;100366.13;5052860;28;20446;-50
2022/07/28 00:11:08;;;;;;;1.37;0.40;;;;;;;17.57;58.25;100356.97;5067969;28;20446;-50
2022/07/28 00:13:35;;;;;;;0.70;0.37;;;;;;;17.41;59.42;100347.09;5052320;28;20489;-50
2022/07/28 00:16:02;;;;;;;1.17;0.40;;;;;;;17.69;58.77;100343.72;5052505;28;20533;-50
2022/07/28 00:18:29;;;;;;;0.57;0.40;;;;;;;17.22;59.99;100351.72;5052757;28;20453;-50
2022/07/28 00:20:56;;;;;;;0.60;0.40;;;;;;;17.38;59.08;100346.38;5055625;28;20448;-49
2022/07/28 00:23:23;;;;;;;0.57;0.40;;;;;;;17.18;60.17;100356.41;5062418;28;20451;-50
2022/07/28 00:26:05;;;;;;;0.60;0.50;;;;;;;16.88;61.96;100355.38;5052163;28;21006;-49
2022/07/28 00:28:31;;;;;;;0.60;0.43;;;;;;;16.84;61.75;100346.59;5052499;28;20454;-50
2022/07/28 00:30:57;;;;;;;2.80;0.47;;;;;;;16.55;62.20;100344.56;5067989;28;20450;-49
2022/07/28 00:33:33;;;;;;;0.50;0.40;;;;;;;16.45;62.14;100341.50;5052034;28;20545;-50
2022/07/28 00:35:59;;;;;;;1.93;0.60;;;;;;;16.71;60.65;100329.41;5052371;28;20443;-50
2022/07/28 00:38:26;;;;;;;0.60;0.40;;;;;;;16.49;61.73;100336.84;5067465;28;20876;-50
2022/07/28 00:41:10;;;;;;;3.70;0.60;;;;;;;16.35;61.86;100331.34;5052409;28;20879;-49
2022/07/28 00:43:43;;;;;;;1.77;0.50;;;;;;;16.88;60.86;100332.09;5052218;28;20842;-50
2022/07/28 00:46:11;;;;;;;1.10;0.40;;;;;;;16.63;60.89;100336.13;5052372;28;20490;-50
2022/07/28 00:48:41;;;;;;;0.50;0.30;;;;;;;16.71;61.07;100336.59;5051991;28;20455;-50
2022/07/28 00:51:09;;;;;;;0.60;0.40;;;;;;;16.68;61.37;100334.94;5052840;28;20808;-50
2022/07/28 00:53:39;;;;;;;0.50;0.33;;;;;;;16.51;61.94;100337.63;5052174;28;20475;-49
2022/07/28 00:56:06;;;;;;;1.23;0.70;;;;;;;16.19;62.45;100336.63;5052223;28;20450;-50
2022/07/28 00:58:37;;;;;;;0.60;0.40;;;;;;;16.39;61.92;100335.59;5051885;28;20985;-50
2022/07/28 01:01:05;;;;;;;0.83;0.30;;;;;;;16.50;61.96;100339.44;5051921;28;20443;-50
2022/07/28 01:03:33;;;;;;;2.10;0.63;;;;;;;16.65;62.05;100329.72;5053316;28;20499;-49
2022/07/28 01:06:08;;;;;;;0.60;0.30;;;;;;;16.78;60.92;100328.16;5055938;28;20494;-50
2022/07/28 01:09:19;;;;;;;2.40;0.63;;;;;;;17.51;58.49;100325.91;5056457;28;20446;-50
2022/07/28 01:12:09;;;;;;;0.57;0.30;;;;;;;17.17;58.06;100327.81;5014086;28;20456;-50
2022/07/28 01:14:37;;;;;;;33.20;0.77;;;;;;;16.88;59.24;100324.03;5055901;28;20467;-50
2022/07/28 01:17:23;;;;;;;0.70;0.50;;;;;;;16.65;60.22;100328.84;5055802;28;20453;-50
2022/07/28 01:20:02;;;;;;;7.80;0.60;;;;;;;16.56;60.75;100319.47;5055791;28;20449;-50
2022/07/28 01:22:33;;;;;;;0.80;0.70;;;;;;;16.49;61.17;100318.06;5069454;28;20438;-50
2022/07/28 01:25:15;;;;;;;0.50;0.40;;;;;;;16.35;62.03;100312.56;5055756;28;20537;-50
2022/07/28 01:27:55;;;;;;;1.67;1.57;;;;;;;16.23;62.26;100311.38;5055709;28;20447;-50
2022/07/28 01:30:40;;;;;;;0.60;0.30;;;;;;;16.20;62.54;100312.41;5055509;28;20923;-50
2022/07/28 01:33:14;;;;;;;0.70;0.70;;;;;;;16.26;62.79;100308.53;5055725;28;20445;-50
2022/07/28 01:35:45;;;;;;;0.50;0.33;;;;;;;16.35;62.22;100313.41;5054351;28;20563;-50
2022/07/28 01:38:13;;;;;;;0.80;0.40;;;;;;;16.23;63.17;100314.91;5055602;28;20443;-50
2022/07/28 01:40:44;;;;;;;1.17;0.40;;;;;;;16.19;63.22;100307.97;5055399;28;20455;-50
2022/07/28 01:43:20;;;;;;;1.83;0.83;;;;;;;16.71;60.91;100307.06;5055253;28;20947;-50
2022/07/28 01:45:46;;;;;;;1.17;0.60;;;;;;;16.90;60.35;100307.84;5043109;28;20494;-49
2022/07/28 01:48:15;;;;;;;0.83;0.60;;;;;;;16.51;61.93;100300.94;5055363;28;20451;-50
2022/07/28 01:50:43;;;;;;;2.10;0.97;;;;;;;16.09;63.30;100295.97;5055325;28;20446;-50
2022/07/28 01:53:14;;;;;;;0.80;0.40;;;;;;;16.18;62.78;100300.03;5055077;28;20450;-50
2022/07/28 01:55:46;;;;;;;1.07;0.53;;;;;;;16.00;63.31;100286.59;5055315;28;20449;-50
2022/07/28 01:58:15;;;;;;;0.70;0.40;;;;;;;15.98;63.56;100291.16;5055169;28;20446;-50
2022/07/28 02:00:46;;;;;;;0.50;0.40;;;;;;;16.34;63.23;100286.69;5055370;28;20450;-50
2022/07/28 02:03:14;;;;;;;0.70;0.50;;;;;;;16.04;63.88;100284.63;5055059;28;20447;-49
2022/07/28 02:05:42;;;;;;;1.60;0.90;;;;;;;16.03;64.18;100284.69;5054918;28;20500;-49
2022/07/28 02:08:11;;;;;;;1.10;0.40;;;;;;;15.99;64.74;100278.63;5054598;28;20485;-50
2022/07/28 02:10:41;;;;;;;0.50;0.30;;;;;;;15.80;65.15;100281.38;5055105;28;20451;-49
2022/07/28 02:13:10;;;;;;;0.70;0.50;;;;;;;15.74;65.27;100275.44;5054665;28;21372;-50
2022/07/28 02:15:38;;;;;;;2.93;0.70;;;;;;;15.83;65.11;100283.03;5053562;28;20442;-50
2022/07/28 02:18:06;;;;;;;0.70;0.50;;;;;;;15.80;64.97;100270.66;5055052;28;20974;-50
2022/07/28 02:20:34;;;;;;;0.93;0.80;;;;;;;16.08;64.43;100272.78;5054650;28;20993;-49
2022/07/28 02:23:01;;;;;;;2.20;0.40;;;;;;;15.90;64.87;100269.25;5066240;28;20943;-49
2022/07/28 02:25:29;;;;;;;0.63;0.50;;;;;;;15.82;64.44;100252.69;5054553;28;20501;-49
2022/07/28 02:28:02;;;;;;;0.40;0.30;;;;;;;15.75;65.63;100255.72;5054523;28;20446;-50
2022/07/28 02:30:40;;;;;;;0.50;0.40;;;;;;;15.82;65.83;100250.00;5054647;28;20443;-49
2022/07/28 02:33:21;;;;;;;0.40;0.30;;;;;;;15.77;66.01;100252.06;5054497;28;21016;-50
2022/07/28 02:36:18;;;;;;;7.00;0.40;;;;;;;15.89;65.36;100239.81;5042145;28;20449;-49
2022/07/28 02:38:48;;;;;;;0.50;0.40;;;;;;;15.79;65.25;100235.91;5054434;28;20453;-49
2022/07/28 02:41:19;;;;;;;0.60;0.40;;;;;;;15.84;65.20;100240.06;5054333;28;20451;-50
2022/07/28 02:43:47;;;;;;;1.57;0.50;;;;;;;15.69;65.84;100235.47;5054018;28;20916;-50
2022/07/28 02:46:18;;;;;;;0.50;0.37;;;;;;;15.79;66.34;100246.63;5054329;28;20512;-50
2022/07/28 02:48:51;;;;;;;0.50;0.30;;;;;;;15.62;66.91;100245.66;5054218;28;20551;-50
2022/07/28 02:51:22;;;;;;;0.73;0.73;;;;;;;15.72;66.35;100251.41;5054216;28;20443;-50
2022/07/28 02:53:50;;;;;;;0.83;0.83;;;;;;;15.41;67.01;100246.69;5054386;22;20486;-50
2022/07/28 02:56:17;;;;;;;0.70;0.60;;;;;;;15.31;67.15;100251.59;5014049;28;20449;-50
2022/07/28 02:58:44;;;;;;;0.70;0.37;;;;;;;15.34;67.24;100243.41;5014477;28;20471;-50
2022/07/28 03:01:12;;;;;;;15.27;0.97;;;;;;;15.02;68.69;100250.34;5014511;28;20459;-50
2022/07/28 03:03:39;;;;;;;0.50;0.30;;;;;;;14.98;68.58;100251.44;5014855;28;20463;-50
2022/07/28 03:06:09;;;;;;;13.10;0.70;;;;;;;14.94;69.11;100243.59;5019559;28;20500;-51
2022/07/28 03:08:36;;;;;;;5.90;0.60;;;;;;;14.77;70.03;100255.97;5029430;28;20967;-50
2022/07/28 03:11:13;;;;;;;0.50;0.30;;;;;;;15.24;68.95;100249.31;5032570;28;20451;-50
2022/07/28 03:13:39;;;;;;;1.23;0.50;;;;;;;15.00;68.55;100254.91;5023850;28;20443;-51
2022/07/28 03:16:07;;;;;;;1.23;0.60;;;;;;;15.10;69.46;100258.00;5021284;28;20451;-51
2022/07/28 03:18:33;;;;;;;0.50;0.40;;;;;;;14.89;69.97;100259.00;5024384;28;20452;-50
2022/07/28 03:21:00;;;;;;;0.90;0.40;;;;;;;14.58;70.92;100262.25;5033870;28;20448;-51
2022/07/28 03:23:39;;;;;;;0.57;0.30;;;;;;;14.64;70.33;100257.47;5043152;28;20458;-51
2022/07/28 03:26:11;;;;;;;0.50;0.30;;;;;;;14.47;70.19;100255.56;5020215;28;20491;-50
2022/07/28 03:28:39;;;;;;;2.00;0.83;;;;;;;14.24;71.05;100255.69;5027100;28;20448;-50
2022/07/28 03:31:09;;;;;;;2.10;0.80;;;;;;;14.40;71.33;100251.41;5020582;28;20447;-50
2022/07/28 03:33:37;;;;;;;0.77;0.77;;;;;;;14.41;71.32;100255.81;5020284;28;20539;-50
2022/07/28 03:36:12;;;;;;;0.50;0.30;;;;;;;14.62;70.80;100253.13;5026262;28;20463;-50
2022/07/28 03:38:47;;;;;;;0.70;0.50;;;;;;;14.79;70.60;100242.50;5027474;28;20443;-50
2022/07/28 03:41:15;;;;;;;0.63;0.30;;;;;;;14.59;70.91;100251.47;5023637;28;20935;-51
2022/07/28 03:43:43;;;;;;;3.90;0.30;;;;;;;14.44;71.21;100253.03;5019985;28;20826;-50
2022/07/28 03:46:09;;;;;;;0.50;0.30;;;;;;;14.48;72.05;100254.63;5026681;28;20507;-50
2022/07/28 03:48:38;;;;;;;0.77;0.50;;;;;;;14.61;71.46;100257.59;5029235;28;20455;-50
2022/07/28 03:51:05;;;;;;;3.60;0.40;;;;;;;14.31;72.07;100258.97;5024426;28;20458;-51
2022/07/28 03:53:32;;;;;;;0.50;0.40;;;;;;;14.28;72.69;100251.09;5019736;28;20548;-50
2022/07/28 03:55:58;;;;;;;0.60;0.30;;;;;;;14.28;72.30;100253.75;5022128;28;20473;-50
2022/07/28 03:58:26;;;;;;;0.90;0.90;;;;;;;14.27;72.45;100250.22;5026647;28;20830;-50
2022/07/28 04:00:55;;;;;;;0.50;0.40;;;;;;;14.33;72.36;100247.25;5025484;28;20986;-50
2022/07/28 04:03:22;;;;;;;0.67;0.40;;;;;;;14.32;72.18;100255.34;5020577;28;20556;-50
2022/07/28 04:06:13;;;;;;;5.40;0.80;;;;;;;14.45;71.58;100244.06;5019576;28;21051;-50
2022/07/28 04:08:41;;;;;;;0.50;0.30;;;;;;;14.49;71.78;100248.34;5024230;28;20480;-50
2022/07/28 04:11:07;;;;;;;3.60;0.47;;;;;;;14.46;72.34;100253.81;5026194;28;20492;-50
2022/07/28 04:13:35;;;;;;;4.20;0.60;;;;;;;14.54;72.63;100258.84;5022180;28;20448;-52
2022/07/28 04:16:04;;;;;;;0.50;0.30;;;;;;;14.64;71.63;100254.78;5019555;28;20904;-50
2022/07/28 04:18:30;;;;;;;1.00;0.50;;;;;;;14.61;71.75;100252.25;5023138;28;20972;-50
2022/07/28 04:20:57;;;;;;;0.63;0.40;;;;;;;14.68;71.79;100248.38;5032464;28;20450;-50
2022/07/28 04:23:24;;;;;;;12.00;0.90;;;;;;;14.88;71.30;100257.28;5042286;28;20451;-50
2022/07/28 04:25:50;;;;;;;2.07;0.87;;;;;;;14.79;72.02;100242.50;5019105;28;20468;-49
2022/07/28 04:28:17;;;;;;;1.07;0.50;;;;;;;15.87;67.52;100239.91;5025520;28;20957;-50
2022/07/28 04:30:43;;;;;;;1.07;0.30;;;;;;;15.53;68.94;100246.06;5019435;28;20451;-50
2022/07/28 04:33:11;;;;;;;0.90;0.50;;;;;;;15.39;70.12;100244.06;5021843;28;20448;-50
2022/07/28 04:35:37;;;;;;;0.50;0.40;;;;;;;15.49;70.19;100244.50;5025759;28;20473;-50
2022/07/28 04:38:04;;;;;;;0.60;0.43;;;;;;;15.30;70.83;100241.84;5022756;28;20458;-50
2022/07/28 04:40:32;;;;;;;0.90;0.70;;;;;;;15.34;70.87;100247.91;5018923;28;20474;-50
2022/07/28 04:42:59;;;;;;;8.80;0.77;;;;;;;15.32;71.15;100247.13;5021135;28;20463;-50
2022/07/28 04:45:25;;;;;;;1.63;0.60;;;;;;;15.34;71.42;100248.75;5025698;28;20490;-50
2022/07/28 04:47:52;;;;;;;0.50;0.30;;;;;;;15.33;71.52;100243.50;5030421;28;21012;-49
2022/07/28 04:50:20;;;;;;;0.70;0.30;;;;;;;15.37;71.82;100240.59;5019147;28;20451;-50
2022/07/28 04:52:48;;;;;;;0.57;0.40;;;;;;;15.44;71.87;100237.59;5020308;28;20445;-51
2022/07/28 04:55:15;;;;;;;8.60;1.13;;;;;;;15.43;71.31;100231.38;5026563;28;20488;-50
2022/07/28 04:57:42;;;;;;;31.27;1.43;;;;;;;15.54;71.04;100231.72;5026677;28;20444;-50
2022/07/28 05:00:11;;;;;;;1.63;0.63;;;;;;;15.64;70.23;100240.22;5018672;28;20494;-50
2022/07/28 05:02:40;;;;;;;3.90;0.70;;;;;;;15.66;70.95;100241.88;5019536;28;20576;-50
2022/07/28 05:05:07;;;;;;;0.83;0.80;;;;;;;15.68;71.48;100244.47;5025778;28;20567;-50
2022/07/28 05:07:35;;;;;;;0.80;0.60;;;;;;;15.85;70.07;100247.16;5025275;28;20502;-50
2022/07/28 05:10:03;;;;;;;0.80;0.60;;;;;;;15.89;69.81;100239.81;5018835;28;20458;-50
2022/07/28 05:12:30;;;;;;;0.50;0.30;;;;;;;15.99;69.88;100241.09;5019108;28;20452;-50
2022/07/28 05:14:56;;;;;;;1.23;1.23;;;;;;;16.06;69.49;100238.97;5024163;28;20476;-50
2022/07/28 05:17:22;;;;;;;0.70;0.40;;;;;;;16.18;69.48;100244.56;5025952;28;20451;-51
2022/07/28 05:19:49;;;;;;;5.63;0.60;;;;;;;16.13;70.34;100238.56;5019325;28;20509;-51
2022/07/28 05:22:16;;;;;;;1.07;0.60;;;;;;;16.27;69.04;100243.19;5045529;28;20818;-51
2022/07/28 05:24:42;;;;;;;0.80;0.70;;;;;;;16.34;69.83;100241.06;5024544;28;20468;-50
2022/07/28 05:27:11;;;;;;;0.50;0.30;;;;;;;16.18;69.60;100241.00;5019390;28;20492;-51
2022/07/28 05:29:40;;;;;;;2.17;1.00;;;;;;;16.50;69.39;100242.84;5024042;28;20463;-51
2022/07/28 05:32:12;;;;;;;5.67;0.50;;;;;;;16.39;69.14;100233.63;5025307;28;21528;-49
2022/07/28 05:34:42;;;;;;;1.70;0.60;;;;;;;16.58;69.05;100237.94;5022058;28;20526;-50
2022/07/28 05:37:09;;;;;;;1.00;0.60;;;;;;;16.55;68.41;100232.72;5020758;28;20452;-50
2022/07/28 05:39:36;;;;;;;1.10;0.93;;;;;;;16.70;68.86;100236.41;5029146;28;20452;-50
2022/07/28 05:42:03;;;;;;;1.13;0.60;;;;;;;16.86;67.82;100231.97;5018579;28;20474;-49
2022/07/28 05:44:29;;;;;;;2.07;0.60;;;;;;;16.95;68.44;100235.94;5021468;28;20551;-50
2022/07/28 05:47:03;;;;;;;0.50;0.30;;;;;;;17.55;67.34;100236.09;5029768;28;20578;-50
2022/07/28 05:49:30;;;;;;;2.00;0.63;;;;;;;17.79;65.74;100241.88;5021652;28;20452;-51
2022/07/28 05:51:56;;;;;;;0.73;0.40;;;;;;;18.32;64.42;100244.03;5028873;28;20487;-50
2022/07/28 05:54:23;;;;;;;0.63;0.63;;;;;;;18.38;63.10;100237.41;5027128;28;20489;-50
2022/07/28 05:56:49;;;;;;;0.60;0.47;;;;;;;18.37;62.59;100242.91;5021976;28;20954;-50
2022/07/28 05:59:16;;;;;;;0.50;0.40;;;;;;;18.31;62.51;100241.44;5023835;28;20547;-50
2022/07/28 06:01:43;;;;;;;1.57;0.73;;;;;;;18.44;62.09;100241.53;5028363;28;20471;-51
2022/07/28 06:04:10;;;;;;;1.80;0.50;;;;;;;18.51;61.88;100238.38;5027390;28;20529;-50
2022/07/28 06:06:53;;;;;;;0.70;0.60;;;;;;;18.67;62.19;100248.22;5023257;28;20863;-50
2022/07/28 06:09:20;;;;;;;3.37;1.17;;;;;;;19.01;61.83;100242.41;5022025;28;20458;-51
2022/07/28 06:11:46;;;;;;;2.20;0.80;;;;;;;19.37;60.60;100241.00;5027567;28;20459;-50
2022/07/28 06:14:12;;;;;;;1.73;0.90;;;;;;;19.20;60.97;100231.34;5028095;28;20472;-50
2022/07/28 06:16:40;;;;;;;0.50;0.30;;;;;;;19.30;60.89;100235.13;5023615;28;20486;-50
2022/07/28 06:19:06;;;;;;;0.73;0.40;;;;;;;19.64;60.19;100224.84;5022154;28;20486;-50
2022/07/28 06:21:32;;;;;;;1.17;0.40;;;;;;;19.87;58.65;100237.63;5043292;28;20450;-50
2022/07/28 06:23:59;;;;;;;0.50;0.33;;;;;;;19.90;59.34;100239.28;5037909;28;20501;-50
2022/07/28 06:26:25;;;;;;;1.33;0.40;;;;;;;20.21;57.66;100240.75;5020855;28;20490;-50
2022/07/28 06:28:52;;;;;;;0.57;0.40;;;;;;;20.25;52.84;100251.22;5028413;28;20448;-50
2022/07/28 06:31:18;;;;;;;0.50;0.30;;;;;;;20.80;51.17;100244.66;5023808;28;20451;-51
2022/07/28 06:33:45;;;;;;;0.57;0.40;;;;;;;21.32;50.25;100246.31;5021244;28;20448;-50
2022/07/28 06:36:11;;;;;;;1.67;0.70;;;;;;;21.07;49.66;100240.94;5026107;28;20453;-51
2022/07/28 06:38:38;;;;;;;1.90;1.03;;;;;;;21.26;49.43;100239.53;5028141;28;20448;-50
2022/07/28 06:41:04;;;;;;;6.13;1.27;;;;;;;21.11;48.60;100235.22;5023601;28;20475;-51
2022/07/28 06:43:31;;;;;;;0.87;0.50;;;;;;;21.39;48.66;100241.31;5021137;28;20452;-50
2022/07/28 06:46:04;;;;;;;0.77;0.40;;;;;;;21.21;48.63;100238.94;5027487;28;20448;-50
2022/07/28 06:48:30;;;;;;;2.20;0.60;;;;;;;21.25;49.15;100242.34;5030895;28;20496;-50
2022/07/28 06:50:58;;;;;;;0.80;0.60;;;;;;;21.38;48.59;100239.56;5024848;28;20538;-50
2022/07/28 06:53:25;;;;;;;4.77;0.50;;;;;;;21.43;48.33;100240.97;5021214;28;20455;-50
2022/07/28 06:55:59;;;;;;;3.37;1.07;;;;;;;21.30;48.29;100242.84;5022509;28;20558;-50
2022/07/28 06:58:25;;;;;;;0.80;0.57;;;;;;;21.37;48.56;100248.66;5027998;28;20543;-50
2022/07/28 07:00:52;;;;;;;5.20;0.50;;;;;;;21.55;48.33;100242.75;5025419;28;21027;-50
2022/07/28 07:03:18;;;;;;;0.50;0.40;;;;;;;21.78;48.30;100237.44;5021026;28;20452;-50
2022/07/28 07:05:45;;;;;;;1.00;0.40;;;;;;;21.80;48.55;100232.78;5022363;28;20473;-50
2022/07/28 07:08:16;;;;;;;1.63;0.50;;;;;;;21.81;48.24;100239.94;5028171;28;20488;-52
2022/07/28 07:10:43;;;;;;;9.83;0.50;;;;;;;21.48;49.26;100240.59;5027932;28;20820;-49
2022/07/28 07:13:11;;;;;;;0.60;0.40;;;;;;;21.36;49.48;100236.97;5020825;28;20539;-50
2022/07/28 07:15:38;;;;;;;1.37;0.57;;;;;;;21.87;49.17;100234.91;5021407;28;20530;-51
2022/07/28 07:18:05;;;;;;;7.80;0.60;;;;;;;21.45;49.79;100241.72;5020532;28;20535;-50
2022/07/28 07:20:31;;;;;;;0.90;0.60;;;;;;;21.37;49.94;100240.53;5028656;28;20964;-51
2022/07/28 07:22:58;;;;;;;2.03;1.03;;;;;;;21.31;50.41;100233.75;5020586;28;20451;-50
2022/07/28 07:25:24;;;;;;;4.10;0.50;;;;;;;21.84;49.38;100235.13;5020532;28;20476;-52
2022/07/28 07:27:51;;;;;;;6.43;0.53;;;;;;;21.94;48.65;100226.31;5026444;28;20487;-50
2022/07/28 07:30:17;;;;;;;4.20;0.53;;;;;;;21.92;49.02;100222.84;5020279;28;20453;-51
2022/07/28 07:32:44;;;;;;;12.00;1.30;;;;;;;21.84;49.14;100224.31;5026765;28;20467;-50
2022/07/28 07:35:11;;;;;;;8.53;1.27;;;;;;;21.82;49.35;100223.56;5025867;28;20478;-51
2022/07/28 07:37:37;;;;;;;0.50;0.40;;;;;;;21.80;49.09;100227.38;5020778;28;20440;-51
2022/07/28 07:40:05;;;;;;;0.73;0.50;;;;;;;22.12;49.29;100230.34;5019931;28;20830;-50
2022/07/28 07:42:31;;;;;;;0.50;0.30;;;;;;;22.14;48.58;100222.97;5026039;28;20449;-50
2022/07/28 07:44:58;;;;;;;2.00;0.80;;;;;;;22.66;48.49;100222.44;5026751;28;20467;-51
2022/07/28 07:47:25;;;;;;;1.20;0.83;;;;;;;22.65;48.07;100231.53;5027934;28;20494;-50
2022/07/28 07:49:51;;;;;;;0.80;0.70;;;;;;;22.73;48.08;100226.34;5020338;28;20460;-50
2022/07/28 07:52:18;;;;;;;1.20;1.10;;;;;;;22.63;47.77;100219.09;5025459;28;20460;-50
2022/07/28 07:54:44;;;;;;;3.17;1.33;;;;;;;22.45;48.87;100222.28;5026749;28;20481;-51
2022/07/28 07:57:11;;;;;;;0.97;0.80;;;;;;;22.44;48.34;100209.72;5022670;28;20458;-51
2022/07/28 07:59:37;;;;;;;8.23;0.70;;;;;;;22.52;48.64;100211.81;5020209;28;20824;-50
2022/07/28 08:02:04;;;;;;;1.33;1.00;;;;;;;22.86;47.66;100209.13;5024454;28;20535;-50
2022/07/28 08:04:31;;;;;;;4.50;0.93;;;;;;;22.80;48.37;100213.19;5026389;28;20502;-50
2022/07/28 08:07:04;;;;;;;3.57;0.77;;;;;;;22.88;48.09;100218.00;5022830;28;20566;-50
2022/07/28 08:09:31;;;;;;;1.00;0.83;;;;;;;22.62;48.90;100202.00;5019666;28;20483;-50
2022/07/28 08:11:57;;;;;;;5.60;1.13;;;;;;;22.64;48.12;100208.16;5022812;28;20453;-50
2022/07/28 08:14:24;;;;;;;1.97;0.70;;;;;;;22.68;48.60;100203.34;5024416;28;20476;-49
2022/07/28 08:16:51;;;;;;;4.20;1.20;;;;;;;22.89;48.19;100204.34;5023523;28;20452;-50
2022/07/28 08:19:17;;;;;;;1.17;0.87;;;;;;;22.63;49.17;100205.56;5028971;28;20475;-50
2022/07/28 08:21:47;;;;;;;2.30;0.40;;;;;;;22.57;49.04;100198.75;5040893;28;21023;-50
2022/07/28 08:24:14;;;;;;;4.30;1.00;;;;;;;22.55;49.30;100198.03;5032055;28;20476;-50
2022/07/28 08:26:58;;;;;;;1.60;0.63;;;;;;;22.53;49.29;100205.41;5019094;28;20933;-50
2022/07/28 08:29:25;;;;;;;1.40;0.50;;;;;;;22.44;49.38;100204.28;5025979;28;20958;-49
2022/07/28 08:31:51;;;;;;;1.63;0.90;;;;;;;22.71;49.15;100213.91;5026184;28;20451;-50
2022/07/28 08:34:18;;;;;;;3.17;0.60;;;;;;;22.59;49.09;100212.19;5019081;28;20962;-50
2022/07/28 08:37:01;;;;;;;3.60;0.60;;;;;;;22.97;48.71;100199.16;5019072;28;20480;-50
2022/07/28 08:39:29;;;;;;;8.10;0.50;;;;;;;23.11;47.53;100202.59;5023653;28;20455;-50
2022/07/28 08:42:15;;;;;;;0.90;0.80;;;;;;;23.05;47.97;100202.13;5025747;28;20823;-49
2022/07/28 08:44:46;;;;;;;2.20;0.93;;;;;;;23.15;47.58;100196.78;5024459;28;20792;-50
2022/07/28 08:47:14;;;;;;;1.87;0.63;;;;;;;23.24;47.31;100187.88;5025954;28;20956;-50
2022/07/28 08:49:41;;;;;;;2.90;0.87;;;;;;;23.84;47.10;100191.88;5019830;28;20456;-50
2022/07/28 08:52:12;;;;;;;6.17;1.00;;;;;;;23.85;47.12;100193.63;5025756;28;20459;-50
2022/07/28 08:54:47;;;;;;;2.13;0.87;;;;;;;23.68;46.29;100202.31;5026134;28;20526;-54
2022/07/28 08:57:25;;;;;;;1.60;1.50;;;;;;;23.83;46.73;100202.88;5020392;28;20443;-53
2022/07/28 08:59:51;;;;;;;1.80;0.73;;;;;;;23.52;47.27;100193.72;5018809;28;20535;-53
2022/07/28 09:02:18;;;;;;;23.87;1.03;;;;;;;23.08;48.03;100192.00;5023040;28;20459;-52
2022/07/28 09:04:46;;;;;;;0.60;0.40;;;;;;;23.41;47.83;100182.91;5025427;28;20589;-53
2022/07/28 09:07:13;;;;;;;1.50;1.23;;;;;;;23.56;48.18;100184.31;5021787;28;20488;-53
2022/07/28 09:09:40;;;;;;;1.13;1.03;;;;;;;23.74;47.44;100185.53;5018711;28;20452;-54
2022/07/28 09:12:07;;;;;;;0.70;0.53;;;;;;;23.55;47.30;100182.59;5022727;28;20449;-55
2022/07/28 09:14:34;;;;;;;11.90;1.00;;;;;;;23.37;47.83;100181.44;5025425;28;20472;-54
2022/07/28 09:17:01;;;;;;;0.77;0.77;;;;;;;23.24;47.83;100182.47;5023384;28;20458;-55
2022/07/28 09:19:30;;;;;;;1.43;0.80;;;;;;;23.46;48.14;100176.13;5018659;28;20444;-54
2022/07/28 09:22:01;;;;;;;2.20;1.03;;;;;;;23.53;47.74;100180.03;5044618;28;20505;-54
2022/07/28 09:24:41;;;;;;;0.97;0.87;;;;;;;23.64;47.75;100180.00;5028742;28;20472;-53
2022/07/28 09:27:10;;;;;;;0.63;0.63;;;;;;;23.89;47.41;100173.34;5022511;28;20455;-53
2022/07/28 09:29:39;;;;;;;1.10;0.67;;;;;;;24.02;46.49;100172.31;5028355;28;20941;-54
2022/07/28 09:32:06;;;;;;;1.10;1.00;;;;;;;24.07;46.86;100180.91;5029081;28;20448;-55
2022/07/28 09:34:44;;;;;;;2.80;1.13;;;;;;;24.19;45.85;100177.13;5024212;28;20475;-55
2022/07/28 09:37:18;;;;;;;0.70;0.70;;;;;;;24.00;46.40;100179.72;5022650;28;20600;-54
2022/07/28 09:39:53;;;;;;;20.13;1.23;;;;;;;24.41;46.18;100168.00;5024990;28;20448;-55
2022/07/28 09:42:20;;;;;;;2.47;1.00;;;;;;;24.41;45.87;100179.72;5029237;28;20842;-54
2022/07/28 09:45:04;;;;;;;10.73;0.90;;;;;;;24.61;45.19;100167.06;5027713;28;20790;-53
2022/07/28 09:47:48;;;;;;;0.70;0.40;;;;;;;25.15;44.62;100170.44;5035684;28;20903;-54
2022/07/28 09:50:20;;;;;;;1.20;0.60;;;;;;;24.98;44.38;100171.94;5022312;28;20459;-54
2022/07/28 09:52:46;;;;;;;17.33;1.17;;;;;;;25.28;43.69;100165.59;5024099;28;20448;-54
2022/07/28 09:55:13;;;;;;;3.13;1.53;;;;;;;25.25;43.73;100163.16;5029084;28;20476;-54
2022/07/28 09:57:39;;;;;;;1.33;1.23;;;;;;;25.31;44.32;100163.44;5026360;28;20448;-54
2022/07/28 10:00:24;;;;;;;3.53;0.83;;;;;;;25.12;44.65;100155.25;5022263;28;20482;-54
2022/07/28 10:02:53;;;;;;;0.90;0.70;;;;;;;25.17;44.43;100161.13;5022107;28;20455;-55
2022/07/28 10:05:19;;;;;;;5.90;1.10;;;;;;;25.15;44.42;100156.81;5027602;28;20562;-53
2022/07/28 10:07:49;;;;;;;0.90;0.67;;;;;;;25.00;44.23;100165.38;5028845;28;20494;-53
2022/07/28 10:10:19;;;;;;;1.90;1.20;;;;;;;25.07;44.29;100162.94;5015746;28;20535;-54
2022/07/28 10:12:45;;;;;;;15.80;1.10;;;;;;;25.12;44.51;100151.69;5028773;28;20445;-55
2022/07/28 10:18:11;;;;;;;0.70;0.50;;;;;;;25.35;43.50;100147.69;5027814;28;20969;-55
2022/07/28 10:20:38;;;;;;;0.50;0.40;;;;;;;25.42;43.91;100143.41;5030028;28;20458;-55
2022/07/28 10:23:10;;;;;;;0.80;0.70;;;;;;;25.57;43.59;100143.81;5047392;28;20816;-54
2022/07/28 10:25:38;;;;;;;0.90;0.70;;;;;;;25.81;43.14;100138.84;5021566;28;20465;-54
2022/07/28 10:28:05;;;;;;;1.07;0.83;;;;;;;25.89;43.30;100130.78;5027638;28;20487;-54
2022/07/28 10:30:38;;;;;;;6.80;1.17;;;;;;;25.94;43.01;100135.81;5021351;28;20788;-54
2022/07/28 10:33:14;;;;;;;8.13;1.20;;;;;;;25.82;42.81;100137.84;5025496;28;20945;-54
2022/07/28 10:35:45;;;;;;;28.43;1.43;;;;;;;26.18;42.25;100133.47;5027698;28;20476;-55
2022/07/28 10:38:22;;;;;;;3.83;0.80;;;;;;;26.40;41.56;100125.94;5028845;28;20440;-55
2022/07/28 10:40:51;;;;;;;1.43;0.97;;;;;;;26.54;42.05;100120.00;5021654;28;20881;-54
2022/07/28 10:43:18;;;;;;;0.60;0.50;;;;;;;26.91;41.11;100124.56;5022568;28;20459;-54
2022/07/28 10:45:46;;;;;;;2.30;0.77;;;;;;;26.84;40.79;100127.03;5028762;28;20556;-54
2022/07/28 10:48:31;;;;;;;1.00;0.90;;;;;;;26.16;41.37;100121.81;5032619;28;20573;-54
2022/07/28 10:50:59;;;;;;;0.67;0.50;;;;;;;26.07;42.11;100128.19;5023521;28;20478;-54
2022/07/28 10:53:39;;;;;;;0.90;0.70;;;;;;;25.94;42.43;100125.78;5021534;28;20452;-55
2022/07/28 10:56:42;;;;;;;1.20;0.73;;;;;;;25.61;42.96;100121.59;5023235;28;20567;-54
2022/07/28 10:59:22;;;;;;;6.90;0.87;;;;;;;25.95;42.45;100115.72;5024329;28;20443;-54
2022/07/28 11:01:54;;;;;;;1.63;1.53;;;;;;;26.04;41.84;100117.59;5020918;28;20476;-54
2022/07/28 11:04:46;;;;;;;0.80;0.63;;;;;;;25.90;42.01;100112.56;5022031;28;20472;-54
2022/07/28 11:07:15;;;;;;;0.83;0.70;;;;;;;25.94;42.12;100105.84;5023124;28;20590;-54
2022/07/28 11:09:43;;;;;;;1.53;0.73;;;;;;;26.01;41.97;100106.97;5020459;28;20500;-54
2022/07/28 11:12:14;;;;;;;5.07;0.93;;;;;;;25.78;42.74;100109.19;5024669;28;20453;-54
2022/07/28 11:14:41;;;;;;;3.67;1.23;;;;;;;25.89;42.87;100098.09;5027346;28;20468;-55
2022/07/28 11:17:09;;;;;;;14.57;0.60;;;;;;;25.69;42.91;100107.31;5026037;28;20474;-54
2022/07/28 11:19:42;;;;;;;2.50;1.00;;;;;;;25.72;42.84;100098.84;5020472;28;20847;-52
2022/07/28 11:22:29;;;;;;;1.57;0.90;;;;;;;25.74;43.20;100105.00;5047144;28;20789;-55
2022/07/28 11:25:01;;;;;;;8.23;1.33;;;;;;;25.96;42.06;100090.22;5023691;28;21020;-54
2022/07/28 11:27:50;;;;;;;0.87;0.70;;;;;;;25.84;42.51;100086.78;5026552;28;20487;-54
2022/07/28 11:30:17;;;;;;;2.47;1.03;;;;;;;25.86;42.38;100086.63;5020299;28;20463;-54
2022/07/28 11:32:50;;;;;;;17.17;1.07;;;;;;;25.66;42.56;100088.50;5026650;28;20571;-54
2022/07/28 11:35:18;;;;;;;2.07;0.70;;;;;;;25.78;42.47;100087.38;5028687;28;20467;-54
2022/07/28 11:38:06;;;;;;;10.83;0.50;;;;;;;26.02;42.02;100075.97;5017565;28;20452;-53
2022/07/28 11:40:37;;;;;;;0.60;0.50;;;;;;;26.43;41.25;100080.16;5033581;28;20813;-54